Flight Track Log - Related Links

Times and Time Zones

All times are in EDT time to prevent confusion due to time zone crossing. See the N982TM flight status page for this flight to view local times or setup timezone preferences in your user account.

Time Position Orientation Groundspeed Altitude Reporting Facility
EDT Latitude Longitude Course Direction KTS MPH feet Rate Location/Type
Tue 02:51:17 PM 36.6333 -86.5833 295° West 138 159 7,100  Level Nashville TRACON
Tue 02:52:20 PM 36.6486 -86.6250 295° West 152 175 8,800 1,854 Climbing Memphis Center
Tue 02:53:20 PM 36.6728 -86.6731 302° West 165 190 10,900 2,150 Climbing Memphis Center
Tue 02:54:20 PM 36.6969 -86.7161 305° West 165 190 13,100 2,050 Climbing Memphis Center
Tue 02:55:20 PM 36.7214 -86.7639 303° West 165 190 15,000 1,900 Climbing Memphis Center
Tue 02:56:20 PM 36.7500 -86.8119 307° West 165 190 16,900 1,800 Climbing Memphis Center
Tue 02:57:20 PM 36.7764 -86.8625 303° West 165 190 18,600 1,750 Climbing Memphis Center
Tue 02:58:20 PM 36.8094 -86.9258 303° West 183 211 20,400 1,650 Climbing Memphis Center
Tue 02:59:20 PM 36.8422 -86.9842 305° West 195 224 21,900 800 Climbing Memphis Center
Tue 03:00:20 PM 36.8775 -87.0553 302° West 223 257 22,000 50 Climbing Memphis Center
Tue 03:01:20 PM 36.9192 -87.1342 303° West 258 297 22,000  Level Memphis Center
Tue 03:02:20 PM 36.9628 -87.2103 306° West 270 311 22,000  Level Memphis Center
Tue 03:03:20 PM 37.0064 -87.2889 305° West 275 316 22,000  Level Memphis Center
Tue 03:04:20 PM 37.0458 -87.3681 302° West 275 316 22,000  Level Memphis Center
Tue 03:05:20 PM 37.0894 -87.4444 306° West 275 316 22,000  Level Memphis Center
Tue 03:06:20 PM 37.1308 -87.5236 303° West 275 316 22,000  Level Memphis Center
Tue 03:07:20 PM 37.1719 -87.6000 304° West 275 316 22,000  Level Memphis Center
Tue 03:08:20 PM 37.2156 -87.6819 304° West 270 311 22,000  Level Memphis Center
Tue 03:09:20 PM 37.2525 -87.7511 304° West 276 318 22,000  Level Memphis Center
Tue 03:10:20 PM 37.3042 -87.8433 305° West 283 326 22,000  Level Memphis Center
Tue 03:11:20 PM 37.3456 -87.9253 302° West 283 326 22,000  Level Memphis Center
Tue 03:12:20 PM 37.3847 -88.0078 301° West 278 320 22,000  Level Memphis Center
Tue 03:13:20 PM 37.4236 -88.0875 302° West 278 320 22,000  Level Memphis Center
Tue 03:14:53 PM 37.4814 -88.2097 301° West 275 316 22,000  Level Kansas City Center
Tue 03:15:55 PM 37.5169 -88.2825 302° West 276 318 22,000  Level Kansas City Center
Tue 03:16:57 PM 37.5575 -88.3644 302° West 273 314 22,000  Level Kansas City Center
Tue 03:17:59 PM 37.6061 -88.4628 302° West 273 314 22,000  Level Kansas City Center
Tue 03:19:01 PM 37.6472 -88.5444 302° West 274 315 22,000  Level Kansas City Center
Tue 03:20:03 PM 37.6872 -88.6253 302° West 271 312 22,000  Level Kansas City Center
Tue 03:21:05 PM 37.7275 -88.7058 302° West 270 311 22,000  Level Kansas City Center
Tue 03:22:07 PM 37.7700 -88.7919 302° West 270 311 22,000  Level Kansas City Center
Tue 03:23:09 PM 37.8092 -88.8750 301° West 270 311 22,000  Level Kansas City Center
Tue 03:24:11 PM 37.8497 -88.9547 303° West 269 310 22,000 -48 Level Kansas City Center
Tue 03:25:13 PM 37.8900 -89.0353 302° West 271 312 21,900 -484 Descending Kansas City Center
Tue 03:26:15 PM 37.9383 -89.1314 303° West 276 318 21,000 -871 Descending Kansas City Center
Tue 03:27:17 PM 37.9792 -89.2125 303° West 274 315 20,100 -1,016 Descending Kansas City Center
Tue 03:28:19 PM 38.0172 -89.2975 300° West 269 310 18,900 -1,500 Descending Kansas City Center
Tue 03:29:21 PM 38.0583 -89.3869 300° West 279 321 17,000 -1,597 Descending Kansas City Center
Tue 03:30:23 PM 38.1014 -89.4686 304° West 279 321 15,600 -1,258 Descending Kansas City Center
Tue 03:31:25 PM 38.1439 -89.5542 302° West 268 308 14,400 -1,161 Descending Kansas City Center
Tue 03:32:27 PM 38.1828 -89.6314 303° West 260 299 13,200 -1,113 Descending Kansas City Center
Tue 03:33:29 PM 38.2164 -89.6958 304° West 255 293 12,100 -532 Descending Kansas City Center
Tue 03:34:31 PM 38.2503 -89.7833 296° West 232 267 12,100  Level Kansas City Center
Tue 03:35:33 PM 38.2736 -89.8544 293° West 221 254 12,100  Level Kansas City Center
Tue 03:36:35 PM 38.2969 -89.9247 293° West 218 251 12,100  Level Kansas City Center
Tue 03:37:38 PM 38.3200 -89.9961 292° West 217 250 12,100 -624 Level Kansas City Center
Tue 03:38:40 PM 38.3425 -90.0708 291° West 221 254 10,800 -1,306 Descending Kansas City Center
Tue 03:39:42 PM 38.3703 -90.1475 295° West 232 267 9,400 -1,548 Descending Kansas City Center
Tue 03:40:44 PM 38.4206 -90.2214 311° West 233 268 7,600 -1,597 Descending Kansas City Center
Tue 03:41:46 PM 38.4667 -90.2783 316° Northwest 232 267 6,100 -1,500 Descending Kansas City Center
Tue 03:42:48 PM 38.5100 -90.3389 312° West 231 266 4,500 -1,403 Descending Kansas City Center
Tue 03:43:50 PM 38.5533 -90.3967 314° West 229 264 3,200 -726 Descending Kansas City Center
Tue 03:44:52 PM 38.5894 -90.4431 315° West 198 228 3,000 -48 Descending Kansas City Center
Tue 03:45:54 PM 38.6222 -90.4853 315° West 177 204 3,100 -290 Climbing Kansas City Center
Tue 03:46:56 PM 38.6506 -90.5353 306° West 171 197 2,400 -774 Descending Kansas City Center
Tue 03:47:58 PM 38.6681 -90.5856 294° West 156 180 1,500 -871 Descending Kansas City Center
Tue 03:49:00 PM 38.6619 -90.6344 261° West 129 148 600 -871 Descending Kansas City Center
Tue 03:50:00 PM 38.6500 -90.6500 303° West  Level FlightAware Approximate
Tue 03:57:00 PM 38.6621 -90.6521 303° West  Level Estimated
Tue 03:58:00 PM 38.6621 -90.6521 303° West  Level Estimated

Login

Don't have an account? Register now (free) for customized features, flight alerts, and more!